sensor_id;sensor_type;location;lat;lon;timestamp;pressure;altitude;pressure_sealevel;temperature;humidity
57442;BME280;43284;47.042;15.498;2023-07-02T00:02:20;96410.06;;;15.60;100.00
57442;BME280;43284;47.042;15.498;2023-07-02T00:04:46;96402.88;;;15.62;100.00
57442;BME280;43284;47.042;15.498;2023-07-02T00:07:12;96404.69;;;15.62;100.00
57442;BME280;43284;47.042;15.498;2023-07-02T00:09:37;96405.63;;;15.61;100.00
57442;BME280;43284;47.042;15.498;2023-07-02T00:12:03;96399.81;;;15.57;100.00
57442;BME280;43284;47.042;15.498;2023-07-02T00:14:29;96406.28;;;15.53;100.00
57442;BME280;43284;47.042;15.498;2023-07-02T00:16:54;96409.13;;;15.50;100.00
57442;BME280;43284;47.042;15.498;2023-07-02T00:19:20;96405.81;;;15.48;100.00
57442;BME280;43284;47.042;15.498;2023-07-02T00:21:45;96408.06;;;15.53;100.00
57442;BME280;43284;47.042;15.498;2023-07-02T00:24:10;96401.22;;;15.50;100.00
57442;BME280;43284;47.042;15.498;2023-07-02T00:26:37;96407.84;;;15.44;100.00
57442;BME280;43284;47.042;15.498;2023-07-02T00:29:03;96403.41;;;15.45;100.00
57442;BME280;43284;47.042;15.498;2023-07-02T00:31:31;96413.00;;;15.46;100.00
57442;BME280;43284;47.042;15.498;2023-07-02T00:33:56;96413.13;;;15.44;100.00
57442;BME280;43284;47.042;15.498;2023-07-02T00:36:22;96412.78;;;15.38;100.00
57442;BME280;43284;47.042;15.498;2023-07-02T00:38:48;96416.59;;;15.34;100.00
57442;BME280;43284;47.042;15.498;2023-07-02T00:41:17;96421.97;;;15.32;100.00
57442;BME280;43284;47.042;15.498;2023-07-02T00:43:43;96416.88;;;15.31;100.00
57442;BME280;43284;47.042;15.498;2023-07-02T00:46:15;96412.31;;;15.33;100.00
57442;BME280;43284;47.042;15.498;2023-07-02T00:48:53;96410.72;;;15.30;100.00
57442;BME280;43284;47.042;15.498;2023-07-02T00:51:19;96420.56;;;15.28;100.00
57442;BME280;43284;47.042;15.498;2023-07-02T00:53:46;96418.28;;;15.23;100.00
57442;BME280;43284;47.042;15.498;2023-07-02T00:56:12;96415.06;;;15.20;100.00
57442;BME280;43284;47.042;15.498;2023-07-02T00:58:41;96421.41;;;15.17;100.00
57442;BME280;43284;47.042;15.498;2023-07-02T01:01:15;96415.31;;;15.17;100.00
57442;BME280;43284;47.042;15.498;2023-07-02T01:03:59;96416.66;;;15.11;100.00
57442;BME280;43284;47.042;15.498;2023-07-02T01:06:26;96410.50;;;15.11;100.00
57442;BME280;43284;47.042;15.498;2023-07-02T01:08:56;96414.84;;;15.12;100.00
57442;BME280;43284;47.042;15.498;2023-07-02T01:11:31;96416.75;;;15.10;100.00
57442;BME280;43284;47.042;15.498;2023-07-02T01:14:02;96419.03;;;15.14;100.00
57442;BME280;43284;47.042;15.498;2023-07-02T01:16:30;96413.16;;;15.22;100.00
57442;BME280;43284;47.042;15.498;2023-07-02T01:18:58;96422.47;;;15.26;100.00
57442;BME280;43284;47.042;15.498;2023-07-02T01:21:30;96421.28;;;15.30;100.00
57442;BME280;43284;47.042;15.498;2023-07-02T01:23:55;96412.16;;;15.34;100.00
57442;BME280;43284;47.042;15.498;2023-07-02T01:26:21;96412.06;;;15.36;100.00
57442;BME280;43284;47.042;15.498;2023-07-02T01:28:47;96417.22;;;15.37;100.00
57442;BME280;43284;47.042;15.498;2023-07-02T01:31:12;96421.50;;;15.38;100.00
57442;BME280;43284;47.042;15.498;2023-07-02T01:33:41;96412.66;;;15.39;100.00
57442;BME280;43284;47.042;15.498;2023-07-02T01:36:07;96417.66;;;15.42;100.00
57442;BME280;43284;47.042;15.498;2023-07-02T01:38:32;96418.28;;;15.46;100.00
57442;BME280;43284;47.042;15.498;2023-07-02T01:40:58;96411.91;;;15.49;100.00
57442;BME280;43284;47.042;15.498;2023-07-02T01:43:23;96411.09;;;15.48;100.00
57442;BME280;43284;47.042;15.498;2023-07-02T01:45:49;96413.00;;;15.46;100.00
57442;BME280;43284;47.042;15.498;2023-07-02T01:48:14;96417.06;;;15.39;100.00
57442;BME280;43284;47.042;15.498;2023-07-02T01:50:40;96407.50;;;15.38;100.00
57442;BME280;43284;47.042;15.498;2023-07-02T01:53:05;96406.91;;;15.34;100.00
57442;BME280;43284;47.042;15.498;2023-07-02T01:55:31;96407.91;;;15.22;100.00
57442;BME280;43284;47.042;15.498;2023-07-02T01:57:56;96406.31;;;15.19;100.00
57442;BME280;43284;47.042;15.498;2023-07-02T02:00:22;96408.22;;;15.17;100.00
57442;BME280;43284;47.042;15.498;2023-07-02T02:02:49;96405.25;;;15.11;100.00
57442;BME280;43284;47.042;15.498;2023-07-02T02:05:16;96403.13;;;15.04;100.00
57442;BME280;43284;47.042;15.498;2023-07-02T02:07:41;96400.59;;;15.03;100.00
57442;BME280;43284;47.042;15.498;2023-07-02T02:10:07;96409.84;;;15.09;100.00
57442;BME280;43284;47.042;15.498;2023-07-02T02:12:34;96407.06;;;14.99;100.00
57442;BME280;43284;47.042;15.498;2023-07-02T02:14:59;96412.94;;;15.02;100.00
57442;BME280;43284;47.042;15.498;2023-07-02T02:17:25;96414.34;;;14.95;100.00
57442;BME280;43284;47.042;15.498;2023-07-02T02:19:50;96411.25;;;14.90;100.00
57442;BME280;43284;47.042;15.498;2023-07-02T02:22:16;96410.66;;;14.87;100.00
57442;BME280;43284;47.042;15.498;2023-07-02T02:24:42;96416.28;;;14.82;100.00
57442;BME280;43284;47.042;15.498;2023-07-02T02:27:07;96410.91;;;14.83;100.00
57442;BME280;43284;47.042;15.498;2023-07-02T02:29:34;96406.09;;;14.77;100.00
57442;BME280;43284;47.042;15.498;2023-07-02T02:31:59;96407.19;;;14.75;100.00
57442;BME280;43284;47.042;15.498;2023-07-02T02:34:25;96407.19;;;14.75;100.00
57442;BME280;43284;47.042;15.498;2023-07-02T02:36:50;96403.47;;;14.66;100.00
57442;BME280;43284;47.042;15.498;2023-07-02T02:39:16;96405.03;;;14.57;100.00
57442;BME280;43284;47.042;15.498;2023-07-02T02:41:41;96407.00;;;14.54;100.00
57442;BME280;43284;47.042;15.498;2023-07-02T02:44:07;96404.00;;;14.47;100.00
57442;BME280;43284;47.042;15.498;2023-07-02T02:46:32;96404.63;;;14.51;100.00
57442;BME280;43284;47.042;15.498;2023-07-02T02:48:58;96404.50;;;14.52;100.00
57442;BME280;43284;47.042;15.498;2023-07-02T02:51:23;96402.13;;;14.60;100.00
57442;BME280;43284;47.042;15.498;2023-07-02T02:53:49;96407.53;;;14.59;100.00
57442;BME280;43284;47.042;15.498;2023-07-02T02:56:15;96409.81;;;14.63;100.00
57442;BME280;43284;47.042;15.498;2023-07-02T02:58:40;96415.78;;;14.66;100.00
57442;BME280;43284;47.042;15.498;2023-07-02T03:01:05;96411.72;;;14.61;100.00
57442;BME280;43284;47.042;15.498;2023-07-02T03:03:38;96415.44;;;14.59;100.00
57442;BME280;43284;47.042;15.498;2023-07-02T03:06:04;96417.59;;;14.65;100.00
57442;BME280;43284;47.042;15.498;2023-07-02T03:08:30;96412.09;;;14.68;100.00
57442;BME280;43284;47.042;15.498;2023-07-02T03:10:56;96412.34;;;14.65;100.00
57442;BME280;43284;47.042;15.498;2023-07-02T03:13:22;96412.66;;;14.60;100.00
57442;BME280;43284;47.042;15.498;2023-07-02T03:15:47;96418.16;;;14.57;100.00
57442;BME280;43284;47.042;15.498;2023-07-02T03:18:13;96421.94;;;14.53;100.00
57442;BME280;43284;47.042;15.498;2023-07-02T03:20:38;96422.91;;;14.52;100.00
57442;BME280;43284;47.042;15.498;2023-07-02T03:23:04;96434.38;;;14.51;100.00
57442;BME280;43284;47.042;15.498;2023-07-02T03:25:29;96429.94;;;14.52;100.00
57442;BME280;43284;47.042;15.498;2023-07-02T03:27:55;96440.38;;;14.53;100.00
57442;BME280;43284;47.042;15.498;2023-07-02T03:30:20;96438.13;;;14.60;100.00
57442;BME280;43284;47.042;15.498;2023-07-02T03:32:46;96428.63;;;14.46;100.00
57442;BME280;43284;47.042;15.498;2023-07-02T03:35:11;96436.88;;;14.41;100.00
57442;BME280;43284;47.042;15.498;2023-07-02T03:37:37;96434.34;;;14.29;100.00
57442;BME280;43284;47.042;15.498;2023-07-02T03:40:03;96439.84;;;14.26;100.00
57442;BME280;43284;47.042;15.498;2023-07-02T03:42:29;96451.41;;;14.23;100.00
57442;BME280;43284;47.042;15.498;2023-07-02T03:44:54;96453.31;;;14.21;100.00
57442;BME280;43284;47.042;15.498;2023-07-02T03:47:20;96453.31;;;14.21;100.00
57442;BME280;43284;47.042;15.498;2023-07-02T03:49:47;96453.31;;;14.21;100.00
57442;BME280;43284;47.042;15.498;2023-07-02T03:52:12;96454.75;;;14.25;100.00
57442;BME280;43284;47.042;15.498;2023-07-02T03:54:38;96453.81;;;14.26;100.00
57442;BME280;43284;47.042;15.498;2023-07-02T03:57:04;96457.28;;;14.27;100.00
57442;BME280;43284;47.042;15.498;2023-07-02T03:59:29;96450.94;;;14.29;100.00
57442;BME280;43284;47.042;15.498;2023-07-02T04:01:55;96460.72;;;14.27;100.00
57442;BME280;43284;47.042;15.498;2023-07-02T04:04:20;96453.47;;;14.31;100.00
57442;BME280;43284;47.042;15.498;2023-07-02T04:06:45;96458.13;;;14.38;100.00
57442;BME280;43284;47.042;15.498;2023-07-02T04:09:11;96457.56;;;14.46;100.00
57442;BME280;43284;47.042;15.498;2023-07-02T04:11:36;96462.22;;;14.54;100.00
57442;BME280;43284;47.042;15.498;2023-07-02T04:14:02;96466.13;;;14.61;100.00
57442;BME280;43284;47.042;15.498;2023-07-02T04:16:28;96467.22;;;14.70;100.00
57442;BME280;43284;47.042;15.498;2023-07-02T04:18:53;96469.03;;;14.80;100.00
57442;BME280;43284;47.042;15.498;2023-07-02T04:21:18;96472.50;;;14.81;100.00
57442;BME280;43284;47.042;15.498;2023-07-02T04:23:44;96472.25;;;14.84;100.00
57442;BME280;43284;47.042;15.498;2023-07-02T04:26:09;96475.72;;;14.84;100.00
57442;BME280;43284;47.042;15.498;2023-07-02T04:28:35;96480.75;;;14.88;100.00
57442;BME280;43284;47.042;15.498;2023-07-02T04:31:00;96483.28;;;14.89;100.00
57442;BME280;43284;47.042;15.498;2023-07-02T04:33:26;96478.84;;;14.90;100.00
57442;BME280;43284;47.042;15.498;2023-07-02T04:36:01;96476.31;;;14.88;100.00
57442;BME280;43284;47.042;15.498;2023-07-02T04:38:26;96470.84;;;14.91;100.00
57442;BME280;43284;47.042;15.498;2023-07-02T04:40:53;96481.13;;;14.94;100.00
57442;BME280;43284;47.042;15.498;2023-07-02T04:43:19;96487.09;;;14.96;100.00
57442;BME280;43284;47.042;15.498;2023-07-02T04:45:44;96484.22;;;14.99;100.00
57442;BME280;43284;47.042;15.498;2023-07-02T04:48:10;96493.47;;;15.05;100.00
57442;BME280;43284;47.042;15.498;2023-07-02T04:50:35;96488.56;;;15.12;100.00
57442;BME280;43284;47.042;15.498;2023-07-02T04:53:01;96491.78;;;15.15;100.00
57442;BME280;43284;47.042;15.498;2023-07-02T04:55:27;96497.53;;;15.20;100.00
57442;BME280;43284;47.042;15.498;2023-07-02T04:57:52;96500.63;;;15.25;100.00
57442;BME280;43284;47.042;15.498;2023-07-02T05:00:18;96504.47;;;15.33;100.00
57442;BME280;43284;47.042;15.498;2023-07-02T05:02:44;96507.59;;;15.38;100.00
57442;BME280;43284;47.042;15.498;2023-07-02T05:05:09;96509.97;;;15.41;100.00
57442;BME280;43284;47.042;15.498;2023-07-02T05:07:35;96506.03;;;15.47;100.00
57442;BME280;43284;47.042;15.498;2023-07-02T05:10:00;96509.13;;;15.52;100.00
57442;BME280;43284;47.042;15.498;2023-07-02T05:12:26;96508.75;;;15.56;100.00
57442;BME280;43284;47.042;15.498;2023-07-02T05:14:51;96507.31;;;15.63;100.00
57442;BME280;43284;47.042;15.498;2023-07-02T05:17:17;96514.53;;;15.73;100.00
57442;BME280;43284;47.042;15.498;2023-07-02T05:19:43;96513.06;;;15.80;100.00
57442;BME280;43284;47.042;15.498;2023-07-02T05:22:09;96513.66;;;15.83;99.78
57442;BME280;43284;47.042;15.498;2023-07-02T05:24:34;96508.47;;;15.93;99.51
57442;BME280;43284;47.042;15.498;2023-07-02T05:27:00;96514.25;;;15.98;94.72
57442;BME280;43284;47.042;15.498;2023-07-02T05:29:25;96520.75;;;16.15;98.24
57442;BME280;43284;47.042;15.498;2023-07-02T05:31:51;96520.38;;;16.20;99.70
57442;BME280;43284;47.042;15.498;2023-07-02T05:34:16;96520.59;;;16.28;100.00
57442;BME280;43284;47.042;15.498;2023-07-02T05:36:42;96516.75;;;16.32;100.00
57442;BME280;43284;47.042;15.498;2023-07-02T05:39:07;96532.19;;;16.37;100.00
57442;BME280;43284;47.042;15.498;2023-07-02T05:41:33;96528.41;;;16.30;98.00
57442;BME280;43284;47.042;15.498;2023-07-02T05:43:59;96531.25;;;16.38;99.07
57442;BME280;43284;47.042;15.498;2023-07-02T05:46:25;96531.81;;;16.41;98.39
57442;BME280;43284;47.042;15.498;2023-07-02T05:48:51;96535.28;;;16.42;96.55
57442;BME280;43284;47.042;15.498;2023-07-02T05:51:26;96530.22;;;16.50;98.20
57442;BME280;43284;47.042;15.498;2023-07-02T05:53:51;96530.94;;;16.52;98.03
57442;BME280;43284;47.042;15.498;2023-07-02T05:56:17;96541.09;;;16.57;99.20
57442;BME280;43284;47.042;15.498;2023-07-02T05:58:44;96541.59;;;16.62;98.78
57442;BME280;43284;47.042;15.498;2023-07-02T06:01:10;96532.41;;;16.66;98.44
57442;BME280;43284;47.042;15.498;2023-07-02T06:03:35;96546.91;;;16.72;97.98
57442;BME280;43284;47.042;15.498;2023-07-02T06:06:02;96544.88;;;16.75;97.09
57442;BME280;43284;47.042;15.498;2023-07-02T06:08:28;96541.00;;;16.79;96.02
57442;BME280;43284;47.042;15.498;2023-07-02T06:10:53;96546.75;;;16.84;93.49
57442;BME280;43284;47.042;15.498;2023-07-02T06:13:19;96543.63;;;16.91;93.67
57442;BME280;43284;47.042;15.498;2023-07-02T06:15:44;96539.22;;;17.01;95.22
57442;BME280;43284;47.042;15.498;2023-07-02T06:18:12;96553.59;;;17.08;95.11
57442;BME280;43284;47.042;15.498;2023-07-02T06:20:38;96552.94;;;17.16;96.37
57442;BME280;43284;47.042;15.498;2023-07-02T06:23:03;96558.69;;;17.21;96.74
57442;BME280;43284;47.042;15.498;2023-07-02T06:25:29;96560.22;;;17.23;97.57
57442;BME280;43284;47.042;15.498;2023-07-02T06:27:54;96562.34;;;17.29;97.77
57442;BME280;43284;47.042;15.498;2023-07-02T06:30:26;96558.59;;;17.32;95.40
57442;BME280;43284;47.042;15.498;2023-07-02T06:32:53;96559.59;;;17.41;91.80
57442;BME280;43284;47.042;15.498;2023-07-02T06:35:19;96552.81;;;17.48;91.07
57442;BME280;43284;47.042;15.498;2023-07-02T06:37:44;96553.94;;;17.55;89.74
57442;BME280;43284;47.042;15.498;2023-07-02T06:40:10;96560.66;;;17.59;88.49
57442;BME280;43284;47.042;15.498;2023-07-02T06:42:36;96557.06;;;17.70;90.47
57442;BME280;43284;47.042;15.498;2023-07-02T06:45:02;96558.91;;;17.79;91.98
57442;BME280;43284;47.042;15.498;2023-07-02T06:47:28;96562.16;;;17.83;91.28
57442;BME280;43284;47.042;15.498;2023-07-02T06:49:54;96560.09;;;17.86;90.91
57442;BME280;43284;47.042;15.498;2023-07-02T06:52:19;96565.09;;;17.89;89.41
57442;BME280;43284;47.042;15.498;2023-07-02T06:54:45;96567.63;;;17.91;88.08
57442;BME280;43284;47.042;15.498;2023-07-02T06:57:12;96564.00;;;17.92;88.39
57442;BME280;43284;47.042;15.498;2023-07-02T06:59:37;96569.16;;;17.94;89.32
57442;BME280;43284;47.042;15.498;2023-07-02T07:02:03;96572.50;;;17.96;88.83
57442;BME280;43284;47.042;15.498;2023-07-02T07:04:28;96579.88;;;17.92;88.07
57442;BME280;43284;47.042;15.498;2023-07-02T07:06:54;96591.44;;;17.91;89.54
57442;BME280;43284;47.042;15.498;2023-07-02T07:09:21;96591.16;;;17.94;89.36
57442;BME280;43284;47.042;15.498;2023-07-02T07:11:46;96594.06;;;17.91;84.47
57442;BME280;43284;47.042;15.498;2023-07-02T07:14:12;96594.91;;;18.01;86.36
57442;BME280;43284;47.042;15.498;2023-07-02T07:16:38;96582.69;;;18.10;87.32
57442;BME280;43284;47.042;15.498;2023-07-02T07:19:03;96583.44;;;18.22;88.19
57442;BME280;43284;47.042;15.498;2023-07-02T07:21:29;96588.47;;;18.35;87.22
57442;BME280;43284;47.042;15.498;2023-07-02T07:23:54;96582.91;;;18.47;85.08
57442;BME280;43284;47.042;15.498;2023-07-02T07:26:19;96583.50;;;18.61;85.72
57442;BME280;43284;47.042;15.498;2023-07-02T07:28:45;96579.44;;;18.76;84.42
57442;BME280;43284;47.042;15.498;2023-07-02T07:31:11;96584.19;;;18.92;83.49
57442;BME280;43284;47.042;15.498;2023-07-02T07:33:36;96586.84;;;19.11;84.65
57442;BME280;43284;47.042;15.498;2023-07-02T07:36:02;96583.03;;;19.24;84.23
57442;BME280;43284;47.042;15.498;2023-07-02T07:38:27;96581.47;;;19.41;84.34
57442;BME280;43284;47.042;15.498;2023-07-02T07:40:53;96578.63;;;19.62;85.03
57442;BME280;43284;47.042;15.498;2023-07-02T07:43:18;96577.13;;;19.87;79.19
57442;BME280;43284;47.042;15.498;2023-07-02T07:45:44;96570.84;;;20.15;74.87
57442;BME280;43284;47.042;15.498;2023-07-02T07:48:09;96577.84;;;20.34;75.71
57442;BME280;43284;47.042;15.498;2023-07-02T07:50:35;96576.56;;;20.66;67.73
57442;BME280;43284;47.042;15.498;2023-07-02T07:53:00;96568.78;;;20.91;68.58
57442;BME280;43284;47.042;15.498;2023-07-02T07:55:25;96564.00;;;21.20;67.34
57442;BME280;43284;47.042;15.498;2023-07-02T07:57:51;96559.56;;;21.21;63.54
57442;BME280;43284;47.042;15.498;2023-07-02T08:00:17;96562.09;;;21.31;66.26
57442;BME280;43284;47.042;15.498;2023-07-02T08:02:46;96568.63;;;21.36;59.89
57442;BME280;43284;47.042;15.498;2023-07-02T08:05:12;96569.00;;;21.42;61.56
57442;BME280;43284;47.042;15.498;2023-07-02T08:07:38;96572.56;;;21.50;67.33
57442;BME280;43284;47.042;15.498;2023-07-02T08:10:04;96563.44;;;21.53;64.68
57442;BME280;43284;47.042;15.498;2023-07-02T08:12:30;96562.75;;;21.51;62.53
57442;BME280;43284;47.042;15.498;2023-07-02T08:14:56;96558.47;;;21.58;63.50
57442;BME280;43284;47.042;15.498;2023-07-02T08:17:21;96560.00;;;21.60;63.11
57442;BME280;43284;47.042;15.498;2023-07-02T08:19:47;96561.66;;;21.62;60.42
57442;BME280;43284;47.042;15.498;2023-07-02T08:22:13;96562.00;;;21.67;61.63
57442;BME280;43284;47.042;15.498;2023-07-02T08:24:39;96552.56;;;21.72;63.57
57442;BME280;43284;47.042;15.498;2023-07-02T08:27:04;96562.03;;;21.75;63.26
57442;BME280;43284;47.042;15.498;2023-07-02T08:29:30;96564.22;;;21.71;63.87
57442;BME280;43284;47.042;15.498;2023-07-02T08:31:56;96564.00;;;21.65;61.05
57442;BME280;43284;47.042;15.498;2023-07-02T08:34:22;96572.91;;;21.55;61.30
57442;BME280;43284;47.042;15.498;2023-07-02T08:36:47;96578.69;;;21.51;62.65
57442;BME280;43284;47.042;15.498;2023-07-02T08:39:13;96574.41;;;21.58;61.18
57442;BME280;43284;47.042;15.498;2023-07-02T08:41:44;96569.47;;;21.63;59.83
57442;BME280;43284;47.042;15.498;2023-07-02T08:44:11;96566.38;;;21.76;61.48
57442;BME280;43284;47.042;15.498;2023-07-02T08:46:39;96564.22;;;21.79;61.47
57442;BME280;43284;47.042;15.498;2023-07-02T08:49:04;96558.13;;;21.87;61.28
57442;BME280;43284;47.042;15.498;2023-07-02T08:51:30;96563.66;;;22.02;65.63
57442;BME280;43284;47.042;15.498;2023-07-02T08:53:55;96553.06;;;22.18;59.68
57442;BME280;43284;47.042;15.498;2023-07-02T08:56:21;96557.38;;;22.11;55.85
57442;BME280;43284;47.042;15.498;2023-07-02T08:58:46;96559.22;;;22.11;56.81
57442;BME280;43284;47.042;15.498;2023-07-02T09:01:13;96549.03;;;22.06;56.89
57442;BME280;43284;47.042;15.498;2023-07-02T09:03:40;96552.19;;;22.10;56.02
57442;BME280;43284;47.042;15.498;2023-07-02T09:06:08;96556.22;;;22.14;57.55
57442;BME280;43284;47.042;15.498;2023-07-02T09:08:34;96553.72;;;22.20;56.94
57442;BME280;43284;47.042;15.498;2023-07-02T09:13:52;96556.03;;;22.66;60.54
57442;BME280;43284;47.042;15.498;2023-07-02T09:16:29;96557.84;;;22.74;56.24
57442;BME280;43284;47.042;15.498;2023-07-02T09:19:04;96557.34;;;22.87;58.67
57442;BME280;43284;47.042;15.498;2023-07-02T09:21:44;96550.03;;;22.89;55.58
57442;BME280;43284;47.042;15.498;2023-07-02T09:24:21;96556.72;;;23.01;58.25
57442;BME280;43284;47.042;15.498;2023-07-02T09:26:54;96557.41;;;23.03;54.63
57442;BME280;43284;47.042;15.498;2023-07-02T09:29:28;96553.88;;;23.11;53.84
57442;BME280;43284;47.042;15.498;2023-07-02T09:31:54;96558.38;;;23.10;54.85
57442;BME280;43284;47.042;15.498;2023-07-02T09:34:19;96560.91;;;23.20;58.15
57442;BME280;43284;47.042;15.498;2023-07-02T09:36:45;96558.38;;;23.27;53.61
57442;BME280;43284;47.042;15.498;2023-07-02T09:39:17;96560.34;;;23.33;53.32
57442;BME280;43284;47.042;15.498;2023-07-02T09:41:44;96552.84;;;23.36;55.11
57442;BME280;43284;47.042;15.498;2023-07-02T09:44:13;96557.84;;;23.39;54.17
57442;BME280;43284;47.042;15.498;2023-07-02T09:46:42;96554.66;;;23.52;56.53
57442;BME280;43284;47.042;15.498;2023-07-02T09:49:14;96546.13;;;23.65;53.47
57442;BME280;43284;47.042;15.498;2023-07-02T09:51:42;96551.44;;;23.65;51.20
57442;BME280;43284;47.042;15.498;2023-07-02T09:54:09;96552.63;;;23.71;52.46
57442;BME280;43284;47.042;15.498;2023-07-02T09:56:35;96554.94;;;23.74;52.66
57442;BME280;43284;47.042;15.498;2023-07-02T09:59:01;96555.06;;;23.89;54.67
57442;BME280;43284;47.042;15.498;2023-07-02T10:01:26;96559.22;;;23.99;54.50
57442;BME280;43284;47.042;15.498;2023-07-02T10:03:52;96565.41;;;23.92;51.75
57442;BME280;43284;47.042;15.498;2023-07-02T10:06:17;96556.69;;;24.06;54.02
57442;BME280;43284;47.042;15.498;2023-07-02T10:08:56;96559.91;;;24.24;54.19
57442;BME280;43284;47.042;15.498;2023-07-02T10:11:33;96559.38;;;24.29;52.86
57442;BME280;43284;47.042;15.498;2023-07-02T10:14:00;96552.53;;;24.35;56.70
57442;BME280;43284;47.042;15.498;2023-07-02T10:16:26;96559.00;;;24.40;54.94
57442;BME280;43284;47.042;15.498;2023-07-02T10:19:11;96567.16;;;24.47;54.32
57442;BME280;43284;47.042;15.498;2023-07-02T10:21:37;96557.97;;;24.50;54.42
57442;BME280;43284;47.042;15.498;2023-07-02T10:24:16;96565.28;;;24.56;55.21
57442;BME280;43284;47.042;15.498;2023-07-02T10:26:59;96563.63;;;24.55;53.81
57442;BME280;43284;47.042;15.498;2023-07-02T10:29:27;96561.97;;;24.54;52.70
57442;BME280;43284;47.042;15.498;2023-07-02T10:31:56;96568.50;;;24.51;53.28
57442;BME280;43284;47.042;15.498;2023-07-02T10:34:30;96567.31;;;24.45;51.57
57442;BME280;43284;47.042;15.498;2023-07-02T10:36:56;96569.81;;;24.47;52.17
57442;BME280;43284;47.042;15.498;2023-07-02T10:39:22;96570.16;;;24.52;53.63
57442;BME280;43284;47.042;15.498;2023-07-02T10:41:48;96574.63;;;24.60;52.39
57442;BME280;43284;47.042;15.498;2023-07-02T10:44:14;96569.56;;;24.65;53.73
57442;BME280;43284;47.042;15.498;2023-07-02T10:46:47;96566.00;;;24.73;53.67
57442;BME280;43284;47.042;15.498;2023-07-02T10:49:16;96566.31;;;24.78;53.75
57442;BME280;43284;47.042;15.498;2023-07-02T10:51:42;96571.28;;;24.81;54.00
57442;BME280;43284;47.042;15.498;2023-07-02T10:54:08;96570.81;;;24.77;53.47
57442;BME280;43284;47.042;15.498;2023-07-02T10:56:34;96566.84;;;24.73;52.24
57442;BME280;43284;47.042;15.498;2023-07-02T10:59:00;96561.97;;;24.77;52.46
57442;BME280;43284;47.042;15.498;2023-07-02T11:01:30;96566.97;;;24.80;53.03
57442;BME280;43284;47.042;15.498;2023-07-02T11:04:03;96558.81;;;24.73;51.71
57442;BME280;43284;47.042;15.498;2023-07-02T11:06:32;96560.53;;;24.66;51.62
57442;BME280;43284;47.042;15.498;2023-07-02T11:08:59;96559.00;;;24.72;52.87
57442;BME280;43284;47.042;15.498;2023-07-02T11:11:25;96562.66;;;24.94;54.81
57442;BME280;43284;47.042;15.498;2023-07-02T11:13:52;96554.94;;;24.99;51.40
57442;BME280;43284;47.042;15.498;2023-07-02T11:16:28;96559.09;;;25.01;53.58
57442;BME280;43284;47.042;15.498;2023-07-02T11:19:06;96554.94;;;24.99;50.46
57442;BME280;43284;47.042;15.498;2023-07-02T11:21:36;96551.66;;;25.12;53.96
57442;BME280;43284;47.042;15.498;2023-07-02T11:24:03;96551.09;;;25.16;51.53
57442;BME280;43284;47.042;15.498;2023-07-02T11:26:39;96552.91;;;25.24;52.73
57442;BME280;43284;47.042;15.498;2023-07-02T11:29:12;96552.47;;;25.35;50.86
57442;BME280;43284;47.042;15.498;2023-07-02T11:31:43;96551.88;;;25.63;53.99
57442;BME280;43284;47.042;15.498;2023-07-02T11:34:17;96550.28;;;25.83;50.35
57442;BME280;43284;47.042;15.498;2023-07-02T11:36:43;96541.97;;;25.93;50.77
57442;BME280;43284;47.042;15.498;2023-07-02T11:39:09;96552.41;;;26.18;49.39
57442;BME280;43284;47.042;15.498;2023-07-02T11:41:43;96553.06;;;26.41;48.39
57442;BME280;43284;47.042;15.498;2023-07-02T11:44:09;96547.47;;;26.36;46.49
57442;BME280;43284;47.042;15.498;2023-07-02T11:46:35;96549.88;;;26.31;47.92
57442;BME280;43284;47.042;15.498;2023-07-02T11:49:04;96554.53;;;26.22;48.65
57442;BME280;43284;47.042;15.498;2023-07-02T11:51:31;96549.16;;;26.22;49.42
57442;BME280;43284;47.042;15.498;2023-07-02T11:53:57;96547.41;;;26.15;49.44
57442;BME280;43284;47.042;15.498;2023-07-02T11:56:23;96542.63;;;26.10;48.40
57442;BME280;43284;47.042;15.498;2023-07-02T11:58:49;96554.06;;;26.04;47.81
57442;BME280;43284;47.042;15.498;2023-07-02T12:01:15;96550.94;;;26.00;48.20
57442;BME280;43284;47.042;15.498;2023-07-02T12:03:40;96553.72;;;26.07;44.60
57442;BME280;43284;47.042;15.498;2023-07-02T12:06:08;96557.72;;;26.33;49.71
57442;BME280;43284;47.042;15.498;2023-07-02T12:08:34;96544.91;;;26.49;46.91
57442;BME280;43284;47.042;15.498;2023-07-02T12:11:02;96551.38;;;26.70;47.51
57442;BME280;43284;47.042;15.498;2023-07-02T12:13:28;96550.03;;;26.81;47.43
57442;BME280;43284;47.042;15.498;2023-07-02T12:15:54;96550.22;;;27.01;47.53
57442;BME280;43284;47.042;15.498;2023-07-02T12:18:19;96554.00;;;27.13;48.94
57442;BME280;43284;47.042;15.498;2023-07-02T12:20:45;96550.00;;;27.02;44.94
57442;BME280;43284;47.042;15.498;2023-07-02T12:23:11;96549.25;;;26.87;45.69
57442;BME280;43284;47.042;15.498;2023-07-02T12:25:38;96553.53;;;26.60;44.61
57442;BME280;43284;47.042;15.498;2023-07-02T12:28:04;96557.78;;;26.18;46.06
57442;BME280;43284;47.042;15.498;2023-07-02T12:30:30;96556.91;;;26.17;46.81
57442;BME280;43284;47.042;15.498;2023-07-02T12:32:56;96553.44;;;26.02;46.87
57442;BME280;43284;47.042;15.498;2023-07-02T12:35:21;96552.59;;;26.01;47.77
57442;BME280;43284;47.042;15.498;2023-07-02T12:37:49;96553.81;;;25.99;48.33
57442;BME280;43284;47.042;15.498;2023-07-02T12:40:15;96557.44;;;25.91;44.81
57442;BME280;43284;47.042;15.498;2023-07-02T12:42:41;96561.75;;;26.07;46.54
57442;BME280;43284;47.042;15.498;2023-07-02T12:45:08;96558.44;;;26.05;44.43
57442;BME280;43284;47.042;15.498;2023-07-02T12:47:44;96561.38;;;25.65;50.29